SPTN/TCQ METAR and TAF weather

Enter ICAO airport designator
Station Type Date Time Source
SPTN METAR 2022/06/29 00:00 UTC NOAA

SPTN 290000Z 22005KT 8000 OVC027 14/11 Q1017 RMK PP000


Station Type Date Time Source
SPTN Decoded METAR 2022/06/29 00:00 UTC NOAA

Tacna, Peru (SPTN) 18-04S 070-18W 469M
Jun 28, 2022 - 08:00 PM EDT / 2022.06.29 0000 UTC
Wind: from the SW (220 degrees) at 6 MPH (5 KT):0
Visibility: 4 mile(s):0
Sky conditions: overcast
Temperature: 57 F (14 C)
Dew Point: 51 F (11 C)
Relative Humidity: 82%
Pressure (altimeter): 30.03 in. Hg (1017 hPa)
ob: SPTN 290000Z 22005KT 8000 OVC027 14/11 Q1017 RMK PP000
cycle: 0

Station Type Date Time Source
SPTN TAF 2022/06/28 18:33 UTC NOAA

TAF SPTN 281700Z 2818/2918 22008KT CAVOK TX21/2819Z TN11/2910Z
FM290000 27004KT 8000 OVC020
BECMG 2909/2911 4000 BR OVC008
BECMG 2914/2915 8000 NSW BKN018
FM291700 23007KT 9999 SCT030

Example: see airport list